sensor_id;sensor_type;location;lat;lon;timestamp;P1;durP1;ratioP1;P2;durP2;ratioP2
84144;SDS011;74264;48.988;12.040;2023-12-07T00:01:58;28.45;;;15.75;;
84144;SDS011;74264;48.988;12.040;2023-12-07T00:04:24;29.85;;;16.00;;
84144;SDS011;74264;48.988;12.040;2023-12-07T00:06:50;26.83;;;15.57;;
84144;SDS011;74264;48.988;12.040;2023-12-07T00:09:15;22.88;;;14.50;;
84144;SDS011;74264;48.988;12.040;2023-12-07T00:11:41;24.95;;;13.93;;
84144;SDS011;74264;48.988;12.040;2023-12-07T00:14:06;44.00;;;17.67;;
84144;SDS011;74264;48.988;12.040;2023-12-07T00:16:32;22.58;;;14.80;;
84144;SDS011;74264;48.988;12.040;2023-12-07T00:18:58;22.52;;;13.93;;
84144;SDS011;74264;48.988;12.040;2023-12-07T00:21:23;22.92;;;14.65;;
84144;SDS011;74264;48.988;12.040;2023-12-07T00:23:49;22.90;;;14.23;;
84144;SDS011;74264;48.988;12.040;2023-12-07T00:26:14;22.05;;;13.88;;
84144;SDS011;74264;48.988;12.040;2023-12-07T00:28:40;23.30;;;15.05;;
84144;SDS011;74264;48.988;12.040;2023-12-07T00:31:05;20.42;;;14.02;;
84144;SDS011;74264;48.988;12.040;2023-12-07T00:33:31;21.75;;;13.30;;
84144;SDS011;74264;48.988;12.040;2023-12-07T00:35:56;22.35;;;14.73;;
84144;SDS011;74264;48.988;12.040;2023-12-07T00:38:22;26.45;;;14.90;;
84144;SDS011;74264;48.988;12.040;2023-12-07T00:40:48;27.05;;;15.10;;
84144;SDS011;74264;48.988;12.040;2023-12-07T00:43:13;22.85;;;15.13;;
84144;SDS011;74264;48.988;12.040;2023-12-07T00:45:39;24.92;;;15.80;;
84144;SDS011;74264;48.988;12.040;2023-12-07T00:48:04;21.70;;;15.02;;
84144;SDS011;74264;48.988;12.040;2023-12-07T00:50:30;21.60;;;14.30;;
84144;SDS011;74264;48.988;12.040;2023-12-07T00:52:56;29.10;;;16.35;;
84144;SDS011;74264;48.988;12.040;2023-12-07T00:55:22;22.30;;;14.07;;
84144;SDS011;74264;48.988;12.040;2023-12-07T00:57:47;33.47;;;16.90;;
84144;SDS011;74264;48.988;12.040;2023-12-07T01:00:13;20.52;;;13.98;;
84144;SDS011;74264;48.988;12.040;2023-12-07T01:02:39;23.92;;;14.75;;
84144;SDS011;74264;48.988;12.040;2023-12-07T01:05:05;31.77;;;15.70;;
84144;SDS011;74264;48.988;12.040;2023-12-07T01:07:31;23.30;;;14.30;;
84144;SDS011;74264;48.988;12.040;2023-12-07T01:09:56;27.88;;;15.10;;
84144;SDS011;74264;48.988;12.040;2023-12-07T01:12:22;32.50;;;16.58;;
84144;SDS011;74264;48.988;12.040;2023-12-07T01:14:48;24.38;;;16.40;;
84144;SDS011;74264;48.988;12.040;2023-12-07T01:17:13;25.70;;;15.65;;
84144;SDS011;74264;48.988;12.040;2023-12-07T01:19:39;37.25;;;17.63;;
84144;SDS011;74264;48.988;12.040;2023-12-07T01:22:04;30.23;;;16.10;;
84144;SDS011;74264;48.988;12.040;2023-12-07T01:24:30;25.63;;;15.82;;
84144;SDS011;74264;48.988;12.040;2023-12-07T01:26:56;31.90;;;16.88;;
84144;SDS011;74264;48.988;12.040;2023-12-07T01:29:21;26.65;;;16.05;;
84144;SDS011;74264;48.988;12.040;2023-12-07T01:31:47;31.67;;;16.95;;
84144;SDS011;74264;48.988;12.040;2023-12-07T01:34:13;30.90;;;18.45;;
84144;SDS011;74264;48.988;12.040;2023-12-07T01:36:38;36.10;;;19.52;;
84144;SDS011;74264;48.988;12.040;2023-12-07T01:39:04;36.80;;;19.20;;
84144;SDS011;74264;48.988;12.040;2023-12-07T01:41:31;29.80;;;16.98;;
84144;SDS011;74264;48.988;12.040;2023-12-07T01:43:56;25.20;;;15.32;;
84144;SDS011;74264;48.988;12.040;2023-12-07T01:46:22;34.67;;;16.77;;
84144;SDS011;74264;48.988;12.040;2023-12-07T01:48:48;41.25;;;18.02;;
84144;SDS011;74264;48.988;12.040;2023-12-07T01:51:14;29.55;;;16.77;;
84144;SDS011;74264;48.988;12.040;2023-12-07T01:53:42;42.42;;;20.45;;
84144;SDS011;74264;48.988;12.040;2023-12-07T01:56:08;29.92;;;17.17;;
84144;SDS011;74264;48.988;12.040;2023-12-07T01:58:34;24.75;;;16.15;;
84144;SDS011;74264;48.988;12.040;2023-12-07T02:01:01;24.88;;;15.57;;
84144;SDS011;74264;48.988;12.040;2023-12-07T02:03:27;24.77;;;14.52;;
84144;SDS011;74264;48.988;12.040;2023-12-07T02:05:55;24.80;;;13.65;;
84144;SDS011;74264;48.988;12.040;2023-12-07T02:08:22;26.08;;;15.25;;
84144;SDS011;74264;48.988;12.040;2023-12-07T02:10:47;21.63;;;14.27;;
84144;SDS011;74264;48.988;12.040;2023-12-07T02:13:13;25.15;;;14.88;;
84144;SDS011;74264;48.988;12.040;2023-12-07T02:15:38;25.38;;;14.13;;
84144;SDS011;74264;48.988;12.040;2023-12-07T02:18:25;23.42;;;14.93;;
84144;SDS011;74264;48.988;12.040;2023-12-07T02:23:41;26.83;;;15.00;;
84144;SDS011;74264;48.988;12.040;2023-12-07T02:26:07;19.73;;;13.82;;
84144;SDS011;74264;48.988;12.040;2023-12-07T02:28:35;26.08;;;14.98;;
84144;SDS011;74264;48.988;12.040;2023-12-07T02:31:01;20.30;;;13.88;;
84144;SDS011;74264;48.988;12.040;2023-12-07T02:33:26;20.67;;;14.20;;
84144;SDS011;74264;48.988;12.040;2023-12-07T02:35:52;18.90;;;13.77;;
84144;SDS011;74264;48.988;12.040;2023-12-07T02:38:18;21.30;;;14.90;;
84144;SDS011;74264;48.988;12.040;2023-12-07T02:40:44;22.52;;;14.75;;
84144;SDS011;74264;48.988;12.040;2023-12-07T02:43:11;21.52;;;14.50;;
84144;SDS011;74264;48.988;12.040;2023-12-07T02:45:37;19.95;;;13.15;;
84144;SDS011;74264;48.988;12.040;2023-12-07T02:48:03;22.55;;;14.55;;
84144;SDS011;74264;48.988;12.040;2023-12-07T02:50:29;21.85;;;14.23;;
84144;SDS011;74264;48.988;12.040;2023-12-07T02:52:55;21.52;;;14.20;;
84144;SDS011;74264;48.988;12.040;2023-12-07T02:55:21;25.08;;;14.95;;
84144;SDS011;74264;48.988;12.040;2023-12-07T02:57:47;22.42;;;13.27;;
84144;SDS011;74264;48.988;12.040;2023-12-07T03:00:13;24.50;;;14.48;;
84144;SDS011;74264;48.988;12.040;2023-12-07T03:02:40;19.75;;;13.32;;
84144;SDS011;74264;48.988;12.040;2023-12-07T03:05:06;19.80;;;13.40;;
84144;SDS011;74264;48.988;12.040;2023-12-07T03:07:33;20.60;;;13.13;;
84144;SDS011;74264;48.988;12.040;2023-12-07T03:09:59;19.63;;;12.63;;
84144;SDS011;74264;48.988;12.040;2023-12-07T03:12:24;19.23;;;12.70;;
84144;SDS011;74264;48.988;12.040;2023-12-07T03:14:50;22.10;;;14.27;;
84144;SDS011;74264;48.988;12.040;2023-12-07T03:17:15;20.10;;;13.65;;
84144;SDS011;74264;48.988;12.040;2023-12-07T03:19:41;22.95;;;13.73;;
84144;SDS011;74264;48.988;12.040;2023-12-07T03:22:07;16.50;;;12.52;;
84144;SDS011;74264;48.988;12.040;2023-12-07T03:24:37;24.00;;;13.68;;
84144;SDS011;74264;48.988;12.040;2023-12-07T03:27:03;20.90;;;13.07;;
84144;SDS011;74264;48.988;12.040;2023-12-07T03:29:30;21.48;;;14.00;;
84144;SDS011;74264;48.988;12.040;2023-12-07T03:31:56;19.25;;;13.45;;
84144;SDS011;74264;48.988;12.040;2023-12-07T03:34:23;27.77;;;14.90;;
84144;SDS011;74264;48.988;12.040;2023-12-07T03:36:48;21.27;;;13.55;;
84144;SDS011;74264;48.988;12.040;2023-12-07T03:39:15;32.47;;;14.43;;
84144;SDS011;74264;48.988;12.040;2023-12-07T03:41:41;24.00;;;15.05;;
84144;SDS011;74264;48.988;12.040;2023-12-07T03:44:07;22.63;;;14.20;;
84144;SDS011;74264;48.988;12.040;2023-12-07T03:46:33;20.02;;;13.85;;
84144;SDS011;74264;48.988;12.040;2023-12-07T03:48:58;22.98;;;15.40;;
84144;SDS011;74264;48.988;12.040;2023-12-07T03:51:26;22.50;;;13.45;;
84144;SDS011;74264;48.988;12.040;2023-12-07T03:53:53;24.23;;;14.05;;
84144;SDS011;74264;48.988;12.040;2023-12-07T03:56:29;27.73;;;14.73;;
84144;SDS011;74264;48.988;12.040;2023-12-07T03:58:56;29.48;;;14.27;;
84144;SDS011;74264;48.988;12.040;2023-12-07T04:01:23;32.97;;;15.18;;
84144;SDS011;74264;48.988;12.040;2023-12-07T04:03:49;26.15;;;15.75;;
84144;SDS011;74264;48.988;12.040;2023-12-07T04:06:15;35.60;;;16.45;;
84144;SDS011;74264;48.988;12.040;2023-12-07T04:08:42;37.03;;;17.15;;
84144;SDS011;74264;48.988;12.040;2023-12-07T04:11:07;27.83;;;15.63;;
84144;SDS011;74264;48.988;12.040;2023-12-07T04:13:33;26.67;;;15.30;;
84144;SDS011;74264;48.988;12.040;2023-12-07T04:15:59;22.73;;;14.27;;
84144;SDS011;74264;48.988;12.040;2023-12-07T04:18:24;22.73;;;14.02;;
84144;SDS011;74264;48.988;12.040;2023-12-07T04:20:50;25.65;;;15.23;;
84144;SDS011;74264;48.988;12.040;2023-12-07T04:23:15;27.58;;;14.63;;
84144;SDS011;74264;48.988;12.040;2023-12-07T04:25:41;31.30;;;15.63;;
84144;SDS011;74264;48.988;12.040;2023-12-07T04:28:06;26.95;;;15.77;;
84144;SDS011;74264;48.988;12.040;2023-12-07T04:30:32;28.63;;;15.93;;
84144;SDS011;74264;48.988;12.040;2023-12-07T04:32:58;36.33;;;16.75;;
84144;SDS011;74264;48.988;12.040;2023-12-07T04:35:23;25.98;;;15.43;;
84144;SDS011;74264;48.988;12.040;2023-12-07T04:37:49;34.55;;;15.13;;
84144;SDS011;74264;48.988;12.040;2023-12-07T04:40:15;26.20;;;15.98;;
84144;SDS011;74264;48.988;12.040;2023-12-07T04:42:41;26.70;;;16.23;;
84144;SDS011;74264;48.988;12.040;2023-12-07T04:45:06;31.45;;;16.63;;
84144;SDS011;74264;48.988;12.040;2023-12-07T04:47:32;30.98;;;17.20;;
84144;SDS011;74264;48.988;12.040;2023-12-07T04:49:58;25.70;;;16.35;;
84144;SDS011;74264;48.988;12.040;2023-12-07T04:52:24;33.55;;;16.25;;
84144;SDS011;74264;48.988;12.040;2023-12-07T04:54:50;31.85;;;15.98;;
84144;SDS011;74264;48.988;12.040;2023-12-07T04:57:16;30.92;;;16.48;;
84144;SDS011;74264;48.988;12.040;2023-12-07T04:59:41;24.08;;;14.68;;
84144;SDS011;74264;48.988;12.040;2023-12-07T05:02:15;32.95;;;15.93;;
84144;SDS011;74264;48.988;12.040;2023-12-07T05:04:42;28.48;;;16.17;;
84144;SDS011;74264;48.988;12.040;2023-12-07T05:07:08;29.70;;;16.10;;
84144;SDS011;74264;48.988;12.040;2023-12-07T05:09:34;28.52;;;16.30;;
84144;SDS011;74264;48.988;12.040;2023-12-07T05:11:59;29.67;;;16.52;;
84144;SDS011;74264;48.988;12.040;2023-12-07T05:14:25;27.08;;;16.10;;
84144;SDS011;74264;48.988;12.040;2023-12-07T05:16:51;34.10;;;16.77;;
84144;SDS011;74264;48.988;12.040;2023-12-07T05:19:24;26.60;;;17.33;;
84144;SDS011;74264;48.988;12.040;2023-12-07T05:21:51;29.42;;;17.48;;
84144;SDS011;74264;48.988;12.040;2023-12-07T05:24:17;36.50;;;17.77;;
84144;SDS011;74264;48.988;12.040;2023-12-07T05:26:43;45.90;;;19.13;;
84144;SDS011;74264;48.988;12.040;2023-12-07T05:29:11;31.92;;;17.42;;
84144;SDS011;74264;48.988;12.040;2023-12-07T05:31:37;30.70;;;16.65;;
84144;SDS011;74264;48.988;12.040;2023-12-07T05:34:03;35.17;;;17.55;;
84144;SDS011;74264;48.988;12.040;2023-12-07T05:36:29;35.50;;;18.23;;
84144;SDS011;74264;48.988;12.040;2023-12-07T05:38:55;30.83;;;18.23;;
84144;SDS011;74264;48.988;12.040;2023-12-07T05:41:21;37.95;;;18.95;;
84144;SDS011;74264;48.988;12.040;2023-12-07T05:43:46;32.60;;;18.48;;
84144;SDS011;74264;48.988;12.040;2023-12-07T05:46:12;33.92;;;17.95;;
84144;SDS011;74264;48.988;12.040;2023-12-07T05:48:37;36.95;;;19.17;;
84144;SDS011;74264;48.988;12.040;2023-12-07T05:51:03;32.28;;;17.98;;
84144;SDS011;74264;48.988;12.040;2023-12-07T05:53:29;31.90;;;18.52;;
84144;SDS011;74264;48.988;12.040;2023-12-07T05:55:58;32.60;;;18.10;;
84144;SDS011;74264;48.988;12.040;2023-12-07T05:58:24;35.95;;;19.63;;
84144;SDS011;74264;48.988;12.040;2023-12-07T06:00:50;38.35;;;19.90;;
84144;SDS011;74264;48.988;12.040;2023-12-07T06:03:15;35.20;;;19.13;;
84144;SDS011;74264;48.988;12.040;2023-12-07T06:05:42;32.40;;;18.02;;
84144;SDS011;74264;48.988;12.040;2023-12-07T06:08:08;36.83;;;18.17;;
84144;SDS011;74264;48.988;12.040;2023-12-07T06:10:34;32.13;;;18.63;;
84144;SDS011;74264;48.988;12.040;2023-12-07T06:13:01;32.38;;;17.92;;
84144;SDS011;74264;48.988;12.040;2023-12-07T06:15:27;37.47;;;18.33;;
84144;SDS011;74264;48.988;12.040;2023-12-07T06:17:53;35.05;;;20.08;;
84144;SDS011;74264;48.988;12.040;2023-12-07T06:20:19;33.65;;;18.70;;
84144;SDS011;74264;48.988;12.040;2023-12-07T06:22:45;38.63;;;20.20;;
84144;SDS011;74264;48.988;12.040;2023-12-07T06:25:11;37.95;;;20.33;;
84144;SDS011;74264;48.988;12.040;2023-12-07T06:27:37;32.13;;;16.90;;
84144;SDS011;74264;48.988;12.040;2023-12-07T06:30:04;47.03;;;20.35;;
84144;SDS011;74264;48.988;12.040;2023-12-07T06:32:34;40.42;;;18.83;;
84144;SDS011;74264;48.988;12.040;2023-12-07T06:35:00;42.10;;;19.20;;
84144;SDS011;74264;48.988;12.040;2023-12-07T06:37:25;36.55;;;19.52;;
84144;SDS011;74264;48.988;12.040;2023-12-07T06:39:51;43.10;;;21.13;;
84144;SDS011;74264;48.988;12.040;2023-12-07T06:42:17;41.72;;;21.15;;
84144;SDS011;74264;48.988;12.040;2023-12-07T06:44:43;42.80;;;20.45;;
84144;SDS011;74264;48.988;12.040;2023-12-07T06:47:13;41.22;;;19.52;;
84144;SDS011;74264;48.988;12.040;2023-12-07T06:49:39;41.47;;;22.45;;
84144;SDS011;74264;48.988;12.040;2023-12-07T06:52:05;48.60;;;21.77;;
84144;SDS011;74264;48.988;12.040;2023-12-07T06:54:30;49.47;;;22.52;;
84144;SDS011;74264;48.988;12.040;2023-12-07T06:56:56;44.88;;;22.40;;
84144;SDS011;74264;48.988;12.040;2023-12-07T06:59:21;44.28;;;22.38;;
84144;SDS011;74264;48.988;12.040;2023-12-07T07:01:47;42.45;;;21.20;;
84144;SDS011;74264;48.988;12.040;2023-12-07T07:04:12;42.75;;;20.20;;
84144;SDS011;74264;48.988;12.040;2023-12-07T07:06:39;40.45;;;21.23;;
84144;SDS011;74264;48.988;12.040;2023-12-07T07:09:06;40.75;;;21.27;;
84144;SDS011;74264;48.988;12.040;2023-12-07T07:11:31;45.88;;;22.05;;
84144;SDS011;74264;48.988;12.040;2023-12-07T07:13:57;41.03;;;21.63;;
84144;SDS011;74264;48.988;12.040;2023-12-07T07:16:22;47.47;;;22.02;;
84144;SDS011;74264;48.988;12.040;2023-12-07T07:18:48;42.40;;;21.80;;
84144;SDS011;74264;48.988;12.040;2023-12-07T07:21:13;51.20;;;22.92;;
84144;SDS011;74264;48.988;12.040;2023-12-07T07:23:39;43.33;;;22.60;;
84144;SDS011;74264;48.988;12.040;2023-12-07T07:26:05;43.95;;;22.60;;
84144;SDS011;74264;48.988;12.040;2023-12-07T07:28:30;54.75;;;23.48;;
84144;SDS011;74264;48.988;12.040;2023-12-07T07:30:56;45.88;;;21.80;;
84144;SDS011;74264;48.988;12.040;2023-12-07T07:33:22;39.55;;;19.70;;
84144;SDS011;74264;48.988;12.040;2023-12-07T07:35:47;38.35;;;19.95;;
84144;SDS011;74264;48.988;12.040;2023-12-07T07:38:13;38.97;;;20.67;;
84144;SDS011;74264;48.988;12.040;2023-12-07T07:40:39;48.50;;;21.73;;
84144;SDS011;74264;48.988;12.040;2023-12-07T07:43:05;38.03;;;20.30;;
84144;SDS011;74264;48.988;12.040;2023-12-07T07:45:31;41.10;;;21.98;;
84144;SDS011;74264;48.988;12.040;2023-12-07T07:47:56;39.00;;;20.50;;
84144;SDS011;74264;48.988;12.040;2023-12-07T07:50:22;36.17;;;19.50;;
84144;SDS011;74264;48.988;12.040;2023-12-07T07:52:47;40.22;;;20.35;;
84144;SDS011;74264;48.988;12.040;2023-12-07T07:55:13;37.88;;;20.17;;
84144;SDS011;74264;48.988;12.040;2023-12-07T07:57:38;39.38;;;20.17;;
84144;SDS011;74264;48.988;12.040;2023-12-07T08:00:05;40.95;;;21.25;;
84144;SDS011;74264;48.988;12.040;2023-12-07T08:02:33;36.63;;;21.20;;
84144;SDS011;74264;48.988;12.040;2023-12-07T08:04:59;41.17;;;22.08;;
84144;SDS011;74264;48.988;12.040;2023-12-07T08:07:25;43.80;;;22.85;;
84144;SDS011;74264;48.988;12.040;2023-12-07T08:09:51;43.05;;;21.95;;
84144;SDS011;74264;48.988;12.040;2023-12-07T08:12:16;41.53;;;22.13;;
84144;SDS011;74264;48.988;12.040;2023-12-07T08:14:42;36.97;;;21.75;;
84144;SDS011;74264;48.988;12.040;2023-12-07T08:17:09;43.65;;;22.17;;
84144;SDS011;74264;48.988;12.040;2023-12-07T08:19:36;45.28;;;22.40;;
84144;SDS011;74264;48.988;12.040;2023-12-07T08:22:03;46.88;;;23.17;;
84144;SDS011;74264;48.988;12.040;2023-12-07T08:24:28;44.35;;;23.13;;
84144;SDS011;74264;48.988;12.040;2023-12-07T08:26:54;36.78;;;20.95;;
84144;SDS011;74264;48.988;12.040;2023-12-07T08:29:19;40.35;;;22.33;;
84144;SDS011;74264;48.988;12.040;2023-12-07T08:31:45;42.50;;;22.73;;
84144;SDS011;74264;48.988;12.040;2023-12-07T08:34:12;43.30;;;24.35;;
84144;SDS011;74264;48.988;12.040;2023-12-07T08:36:38;42.08;;;23.65;;
84144;SDS011;74264;48.988;12.040;2023-12-07T08:39:03;42.22;;;23.77;;
84144;SDS011;74264;48.988;12.040;2023-12-07T08:41:29;41.92;;;23.55;;
84144;SDS011;74264;48.988;12.040;2023-12-07T08:43:54;45.28;;;24.00;;
84144;SDS011;74264;48.988;12.040;2023-12-07T08:46:20;42.63;;;22.50;;
84144;SDS011;74264;48.988;12.040;2023-12-07T08:48:45;40.53;;;22.88;;
84144;SDS011;74264;48.988;12.040;2023-12-07T08:51:11;39.55;;;21.50;;
84144;SDS011;74264;48.988;12.040;2023-12-07T08:53:37;43.63;;;22.95;;
84144;SDS011;74264;48.988;12.040;2023-12-07T08:56:03;40.88;;;24.20;;
84144;SDS011;74264;48.988;12.040;2023-12-07T08:58:29;39.53;;;24.20;;
84144;SDS011;74264;48.988;12.040;2023-12-07T09:00:55;42.25;;;22.38;;
84144;SDS011;74264;48.988;12.040;2023-12-07T09:03:20;41.50;;;23.45;;
84144;SDS011;74264;48.988;12.040;2023-12-07T09:05:46;42.15;;;23.10;;
84144;SDS011;74264;48.988;12.040;2023-12-07T09:08:12;41.67;;;22.73;;
84144;SDS011;74264;48.988;12.040;2023-12-07T09:10:38;51.60;;;26.10;;
84144;SDS011;74264;48.988;12.040;2023-12-07T09:13:03;65.10;;;32.17;;
84144;SDS011;74264;48.988;12.040;2023-12-07T09:15:29;54.50;;;27.75;;
84144;SDS011;74264;48.988;12.040;2023-12-07T09:17:54;55.85;;;28.67;;
84144;SDS011;74264;48.988;12.040;2023-12-07T09:20:20;50.10;;;26.20;;
84144;SDS011;74264;48.988;12.040;2023-12-07T09:22:45;47.50;;;24.75;;
84144;SDS011;74264;48.988;12.040;2023-12-07T09:25:13;36.13;;;20.92;;
84144;SDS011;74264;48.988;12.040;2023-12-07T09:27:40;33.47;;;20.50;;
84144;SDS011;74264;48.988;12.040;2023-12-07T09:30:06;35.67;;;20.88;;
84144;SDS011;74264;48.988;12.040;2023-12-07T09:32:36;34.83;;;19.30;;
84144;SDS011;74264;48.988;12.040;2023-12-07T09:35:04;34.30;;;20.20;;
84144;SDS011;74264;48.988;12.040;2023-12-07T09:37:32;34.42;;;20.27;;
84144;SDS011;74264;48.988;12.040;2023-12-07T09:39:58;31.85;;;20.30;;
84144;SDS011;74264;48.988;12.040;2023-12-07T09:42:24;38.13;;;18.63;;
84144;SDS011;74264;48.988;12.040;2023-12-07T09:44:50;29.08;;;19.23;;
84144;SDS011;74264;48.988;12.040;2023-12-07T09:47:15;32.20;;;19.33;;
84144;SDS011;74264;48.988;12.040;2023-12-07T09:49:41;29.40;;;19.48;;
84144;SDS011;74264;48.988;12.040;2023-12-07T09:52:07;29.35;;;18.33;;
84144;SDS011;74264;48.988;12.040;2023-12-07T09:54:33;31.75;;;18.55;;
84144;SDS011;74264;48.988;12.040;2023-12-07T09:57:00;29.75;;;18.15;;
84144;SDS011;74264;48.988;12.040;2023-12-07T09:59:27;36.72;;;19.70;;
84144;SDS011;74264;48.988;12.040;2023-12-07T10:01:52;30.42;;;19.45;;
84144;SDS011;74264;48.988;12.040;2023-12-07T10:04:19;27.60;;;16.98;;
84144;SDS011;74264;48.988;12.040;2023-12-07T10:06:45;26.17;;;16.48;;
84144;SDS011;74264;48.988;12.040;2023-12-07T10:09:13;31.40;;;18.65;;
84144;SDS011;74264;48.988;12.040;2023-12-07T10:11:39;29.55;;;18.15;;
84144;SDS011;74264;48.988;12.040;2023-12-07T10:14:06;26.08;;;17.10;;
84144;SDS011;74264;48.988;12.040;2023-12-07T10:16:35;27.00;;;16.90;;
84144;SDS011;74264;48.988;12.040;2023-12-07T10:19:34;29.70;;;18.13;;
84144;SDS011;74264;48.988;12.040;2023-12-07T10:21:53;28.48;;;17.55;;
84144;SDS011;74264;48.988;12.040;2023-12-07T10:24:20;25.27;;;16.20;;
84144;SDS011;74264;48.988;12.040;2023-12-07T10:26:47;26.38;;;17.08;;
84144;SDS011;74264;48.988;12.040;2023-12-07T10:29:14;21.48;;;15.38;;
84144;SDS011;74264;48.988;12.040;2023-12-07T10:31:42;22.60;;;15.60;;
84144;SDS011;74264;48.988;12.040;2023-12-07T10:34:09;24.23;;;14.77;;
84144;SDS011;74264;48.988;12.040;2023-12-07T10:36:35;23.83;;;15.10;;
84144;SDS011;74264;48.988;12.040;2023-12-07T10:39:00;21.80;;;14.48;;
84144;SDS011;74264;48.988;12.040;2023-12-07T10:41:26;17.35;;;13.32;;
84144;SDS011;74264;48.988;12.040;2023-12-07T10:43:53;25.27;;;13.35;;
84144;SDS011;74264;48.988;12.040;2023-12-07T10:46:21;19.48;;;12.60;;
84144;SDS011;74264;48.988;12.040;2023-12-07T10:48:47;18.05;;;12.18;;
84144;SDS011;74264;48.988;12.040;2023-12-07T10:51:38;18.17;;;12.23;;
84144;SDS011;74264;48.988;12.040;2023-12-07T10:54:27;18.63;;;12.23;;
84144;SDS011;74264;48.988;12.040;2023-12-07T10:57:07;18.90;;;12.18;;
84144;SDS011;74264;48.988;12.040;2023-12-07T10:59:34;17.45;;;11.77;;
84144;SDS011;74264;48.988;12.040;2023-12-07T11:02:02;15.98;;;11.77;;
84144;SDS011;74264;48.988;12.040;2023-12-07T11:04:28;17.60;;;12.35;;
84144;SDS011;74264;48.988;12.040;2023-12-07T11:06:56;19.92;;;13.55;;
84144;SDS011;74264;48.988;12.040;2023-12-07T11:09:30;17.25;;;12.25;;
84144;SDS011;74264;48.988;12.040;2023-12-07T11:12:20;16.92;;;11.95;;
84144;SDS011;74264;48.988;12.040;2023-12-07T11:14:58;15.63;;;11.70;;
84144;SDS011;74264;48.988;12.040;2023-12-07T11:17:23;17.88;;;11.80;;
84144;SDS011;74264;48.988;12.040;2023-12-07T11:19:49;19.20;;;11.77;;
84144;SDS011;74264;48.988;12.040;2023-12-07T11:22:15;17.95;;;11.82;;
84144;SDS011;74264;48.988;12.040;2023-12-07T11:24:56;17.75;;;11.45;;
84144;SDS011;74264;48.988;12.040;2023-12-07T11:27:24;20.05;;;13.98;;
84144;SDS011;74264;48.988;12.040;2023-12-07T11:29:50;20.13;;;14.15;;
84144;SDS011;74264;48.988;12.040;2023-12-07T11:32:16;21.98;;;14.85;;
84144;SDS011;74264;48.988;12.040;2023-12-07T11:34:42;30.60;;;15.07;;
84144;SDS011;74264;48.988;12.040;2023-12-07T11:37:09;22.98;;;14.68;;
84144;SDS011;74264;48.988;12.040;2023-12-07T11:39:37;24.17;;;16.13;;
84144;SDS011;74264;48.988;12.040;2023-12-07T11:42:06;29.15;;;18.08;;
84144;SDS011;74264;48.988;12.040;2023-12-07T11:44:37;29.75;;;18.85;;
84144;SDS011;74264;48.988;12.040;2023-12-07T11:47:03;24.85;;;17.95;;
84144;SDS011;74264;48.988;12.040;2023-12-07T11:49:30;26.20;;;17.38;;
84144;SDS011;74264;48.988;12.040;2023-12-07T11:51:57;33.55;;;17.48;;
84144;SDS011;74264;48.988;12.040;2023-12-07T11:54:24;30.23;;;18.48;;
84144;SDS011;74264;48.988;12.040;2023-12-07T11:56:54;29.10;;;18.55;;
84144;SDS011;74264;48.988;12.040;2023-12-07T11:59:20;31.60;;;18.13;;
84144;SDS011;74264;48.988;12.040;2023-12-07T12:01:46;27.58;;;18.30;;
84144;SDS011;74264;48.988;12.040;2023-12-07T12:04:14;26.27;;;17.83;;
84144;SDS011;74264;48.988;12.040;2023-12-07T12:06:42;28.45;;;18.10;;
84144;SDS011;74264;48.988;12.040;2023-12-07T12:09:09;29.98;;;17.63;;
84144;SDS011;74264;48.988;12.040;2023-12-07T12:11:35;27.52;;;18.73;;
84144;SDS011;74264;48.988;12.040;2023-12-07T12:14:01;28.23;;;18.45;;
84144;SDS011;74264;48.988;12.040;2023-12-07T12:16:27;28.08;;;17.42;;
84144;SDS011;74264;48.988;12.040;2023-12-07T12:18:52;27.90;;;17.83;;
84144;SDS011;74264;48.988;12.040;2023-12-07T12:21:19;25.58;;;17.35;;
84144;SDS011;74264;48.988;12.040;2023-12-07T12:23:48;33.92;;;18.98;;
84144;SDS011;74264;48.988;12.040;2023-12-07T12:26:16;29.55;;;18.88;;
84144;SDS011;74264;48.988;12.040;2023-12-07T12:28:43;31.60;;;19.17;;
84144;SDS011;74264;48.988;12.040;2023-12-07T12:31:10;30.80;;;19.27;;
84144;SDS011;74264;48.988;12.040;2023-12-07T12:33:37;29.80;;;18.50;;
84144;SDS011;74264;48.988;12.040;2023-12-07T12:36:04;29.00;;;17.13;;
84144;SDS011;74264;48.988;12.040;2023-12-07T12:38:32;32.20;;;18.13;;
84144;SDS011;74264;48.988;12.040;2023-12-07T12:40:58;27.35;;;17.38;;
84144;SDS011;74264;48.988;12.040;2023-12-07T12:43:24;31.77;;;18.25;;
84144;SDS011;74264;48.988;12.040;2023-12-07T12:45:50;32.17;;;18.15;;
84144;SDS011;74264;48.988;12.040;2023-12-07T12:48:15;26.25;;;17.15;;
84144;SDS011;74264;48.988;12.040;2023-12-07T12:50:41;28.60;;;19.45;;
84144;SDS011;74264;48.988;12.040;2023-12-07T12:53:08;31.13;;;19.90;;
84144;SDS011;74264;48.988;12.040;2023-12-07T12:55:39;27.05;;;17.77;;
84144;SDS011;74264;48.988;12.040;2023-12-07T12:58:07;36.30;;;18.98;;
84144;SDS011;74264;48.988;12.040;2023-12-07T13:00:34;30.20;;;18.83;;
84144;SDS011;74264;48.988;12.040;2023-12-07T13:03:03;38.20;;;19.08;;
84144;SDS011;74264;48.988;12.040;2023-12-07T13:05:29;31.13;;;18.92;;
84144;SDS011;74264;48.988;12.040;2023-12-07T13:07:55;29.00;;;18.88;;
84144;SDS011;74264;48.988;12.040;2023-12-07T13:10:21;29.15;;;19.92;;
84144;SDS011;74264;48.988;12.040;2023-12-07T13:12:47;32.80;;;20.52;;
84144;SDS011;74264;48.988;12.040;2023-12-07T13:15:12;29.65;;;20.77;;
84144;SDS011;74264;48.988;12.040;2023-12-07T13:17:39;26.73;;;18.35;;
84144;SDS011;74264;48.988;12.040;2023-12-07T13:20:08;32.42;;;19.10;;
84144;SDS011;74264;48.988;12.040;2023-12-07T13:22:41;30.02;;;20.55;;
84144;SDS011;74264;48.988;12.040;2023-12-07T13:25:08;31.88;;;20.38;;
84144;SDS011;74264;48.988;12.040;2023-12-07T13:27:34;37.35;;;19.95;;
84144;SDS011;74264;48.988;12.040;2023-12-07T13:30:01;35.90;;;21.55;;
84144;SDS011;74264;48.988;12.040;2023-12-07T13:32:31;35.30;;;21.60;;
84144;SDS011;74264;48.988;12.040;2023-12-07T13:34:58;37.17;;;24.27;;
84144;SDS011;74264;48.988;12.040;2023-12-07T13:37:24;37.30;;;23.25;;
84144;SDS011;74264;48.988;12.040;2023-12-07T13:39:49;35.97;;;22.40;;
84144;SDS011;74264;48.988;12.040;2023-12-07T13:42:26;38.83;;;23.35;;
84144;SDS011;74264;48.988;12.040;2023-12-07T13:44:55;37.70;;;23.80;;
84144;SDS011;74264;48.988;12.040;2023-12-07T13:47:23;41.80;;;23.85;;
84144;SDS011;74264;48.988;12.040;2023-12-07T13:49:54;38.38;;;24.23;;
84144;SDS011;74264;48.988;12.040;2023-12-07T13:52:22;39.47;;;23.50;;
84144;SDS011;74264;48.988;12.040;2023-12-07T13:54:48;38.33;;;24.77;;
84144;SDS011;74264;48.988;12.040;2023-12-07T13:57:14;35.53;;;23.27;;
84144;SDS011;74264;48.988;12.040;2023-12-07T13:59:39;41.22;;;23.60;;
84144;SDS011;74264;48.988;12.040;2023-12-07T14:02:06;38.88;;;22.13;;
84144;SDS011;74264;48.988;12.040;2023-12-07T14:04:35;36.13;;;22.48;;
84144;SDS011;74264;48.988;12.040;2023-12-07T14:07:34;37.30;;;21.48;;
84144;SDS011;74264;48.988;12.040;2023-12-07T14:09:52;32.67;;;21.05;;